createdAt,value
2023-03-02T00:01:57.692Z,10.32
2023-03-02T00:04:37.462Z,9.68
2023-03-02T00:07:09.192Z,10.77
2023-03-02T00:09:38.169Z,10.20
2023-03-02T00:12:06.618Z,10.73
2023-03-02T00:14:33.789Z,10.45
2023-03-02T00:17:02.776Z,10.68
2023-03-02T00:19:30.367Z,10.90
2023-03-02T00:21:57.669Z,12.27
2023-03-02T00:24:24.939Z,9.70
2023-03-02T00:26:52.137Z,10.00
2023-03-02T00:29:19.659Z,10.68
2023-03-02T00:31:46.820Z,11.85
2023-03-02T00:34:13.976Z,12.23
2023-03-02T00:36:41.325Z,12.32
2023-03-02T00:39:08.624Z,11.20
2023-03-02T00:41:35.727Z,11.45
2023-03-02T00:44:03.419Z,10.77
2023-03-02T00:46:30.868Z,12.27
2023-03-02T00:48:58.251Z,10.02
2023-03-02T00:51:25.383Z,12.02
2023-03-02T00:53:52.599Z,11.48
2023-03-02T00:56:19.777Z,10.73
2023-03-02T00:58:46.884Z,11.50
2023-03-02T01:01:15.953Z,11.35
2023-03-02T01:03:44.368Z,12.15
2023-03-02T01:06:20.284Z,10.23
2023-03-02T01:08:47.976Z,12.05
2023-03-02T01:11:19.341Z,11.10
2023-03-02T01:13:47.177Z,12.73
2023-03-02T01:16:15.101Z,11.45
2023-03-02T01:18:42.604Z,12.60
2023-03-02T01:21:13.739Z,11.32
2023-03-02T01:23:41.334Z,11.35
2023-03-02T01:26:08.844Z,11.00
2023-03-02T01:28:36.299Z,11.35
2023-03-02T01:31:04.867Z,11.68
2023-03-02T01:33:32.987Z,11.90
2023-03-02T01:36:00.649Z,11.82
2023-03-02T01:38:28.358Z,10.55
2023-03-02T01:40:55.928Z,10.95
2023-03-02T01:43:23.360Z,10.13
2023-03-02T01:45:57.345Z,10.80
2023-03-02T01:48:37.051Z,11.68
2023-03-02T01:51:06.952Z,11.88
2023-03-02T01:53:35.659Z,10.93
2023-03-02T01:56:04.372Z,10.63
2023-03-02T01:58:35.428Z,11.02
2023-03-02T02:01:02.847Z,11.38
2023-03-02T02:03:31.606Z,11.70
2023-03-02T02:06:25.776Z,11.55
2023-03-02T02:08:57.148Z,12.15
2023-03-02T02:11:25.442Z,10.80
2023-03-02T02:13:59.902Z,10.13
2023-03-02T02:16:29.544Z,12.02
2023-03-02T02:18:57.148Z,10.65
2023-03-02T02:21:26.191Z,9.18
2023-03-02T02:24:13.008Z,11.35
2023-03-02T02:26:47.511Z,10.98
2023-03-02T02:29:38.246Z,11.40
2023-03-02T02:32:24.279Z,10.70
2023-03-02T02:34:52.899Z,11.57
2023-03-02T02:37:28.238Z,10.95
2023-03-02T02:39:56.138Z,11.32
2023-03-02T02:42:32.312Z,11.60
2023-03-02T02:45:03.847Z,12.82
2023-03-02T02:47:31.256Z,11.57
2023-03-02T02:49:59.175Z,11.88
2023-03-02T02:52:29.108Z,11.60
2023-03-02T02:54:58.397Z,11.60
2023-03-02T02:57:29.278Z,13.57
2023-03-02T03:00:00.242Z,10.02
2023-03-02T03:02:37.904Z,12.18
2023-03-02T03:05:05.627Z,11.80
2023-03-02T03:07:33.130Z,11.63
2023-03-02T03:10:14.556Z,11.75
2023-03-02T03:12:42.985Z,10.18
2023-03-02T03:15:11.635Z,11.60
2023-03-02T03:17:38.746Z,10.35
2023-03-02T03:20:08.921Z,10.63
2023-03-02T03:22:38.401Z,12.57
2023-03-02T03:25:06.870Z,11.98
2023-03-02T03:27:33.926Z,11.48
2023-03-02T03:30:02.172Z,13.60
2023-03-02T03:32:29.406Z,11.20
2023-03-02T03:34:56.550Z,12.10
2023-03-02T03:37:24.474Z,12.85
2023-03-02T03:39:51.722Z,14.05
2023-03-02T03:42:18.865Z,12.30
2023-03-02T03:44:46.271Z,12.02
2023-03-02T03:47:13.870Z,11.27
2023-03-02T03:49:41.114Z,12.52
2023-03-02T03:52:08.400Z,12.43
2023-03-02T03:54:35.669Z,12.95
2023-03-02T03:57:02.924Z,12.55
2023-03-02T03:59:30.129Z,12.27
2023-03-02T04:02:00.279Z,12.27
2023-03-02T04:04:35.079Z,11.23
2023-03-02T04:07:02.230Z,12.90
2023-03-02T04:09:31.727Z,13.50
2023-03-02T04:11:58.844Z,11.70
2023-03-02T04:14:26.095Z,12.10
2023-03-02T04:16:53.717Z,11.77
2023-03-02T04:19:21.814Z,11.77
2023-03-02T04:21:53.506Z,12.27
2023-03-02T04:26:50.344Z,10.45
2023-03-02T04:29:19.442Z,10.85
2023-03-02T04:31:48.641Z,12.80
2023-03-02T04:34:15.910Z,13.60
2023-03-02T04:36:44.102Z,13.40
2023-03-02T04:39:14.469Z,15.10
2023-03-02T04:41:41.642Z,14.63
2023-03-02T04:44:09.974Z,13.57
2023-03-02T04:46:37.462Z,13.90
2023-03-02T04:49:05.784Z,14.50
2023-03-02T04:51:37.883Z,15.57
2023-03-02T04:54:18.819Z,13.88
2023-03-02T04:56:48.715Z,12.68
2023-03-02T04:59:24.092Z,13.70
2023-03-02T05:01:52.590Z,12.68
2023-03-02T05:04:19.815Z,13.88
2023-03-02T05:06:47.473Z,13.40
2023-03-02T05:09:15.200Z,13.77
2023-03-02T05:11:42.396Z,12.73
2023-03-02T05:14:12.876Z,12.98
2023-03-02T05:16:42.109Z,14.73
2023-03-02T05:19:12.571Z,13.85
2023-03-02T05:21:40.852Z,14.95
2023-03-02T05:24:08.095Z,13.30
2023-03-02T05:26:35.514Z,13.40
2023-03-02T05:29:03.100Z,15.30
2023-03-02T05:31:36.389Z,14.90
2023-03-02T05:34:06.324Z,15.38
2023-03-02T05:36:34.816Z,13.48
2023-03-02T05:39:02.650Z,15.27
2023-03-02T05:41:29.830Z,14.32
2023-03-02T05:43:57.342Z,15.65
2023-03-02T05:46:24.689Z,14.00
2023-03-02T05:48:52.070Z,13.75
2023-03-02T05:51:19.264Z,13.90
2023-03-02T05:53:46.756Z,14.52
2023-03-02T05:56:13.901Z,15.23
2023-03-02T05:58:40.950Z,15.48
2023-03-02T06:01:13.578Z,15.30
2023-03-02T06:03:43.419Z,14.77
2023-03-02T06:06:14.475Z,16.05
2023-03-02T06:08:43.320Z,13.48
2023-03-02T06:11:11.644Z,14.30
2023-03-02T06:13:39.948Z,17.30
2023-03-02T06:16:08.174Z,14.40
2023-03-02T06:18:36.561Z,16.17
2023-03-02T06:21:04.662Z,16.33
2023-03-02T06:23:31.888Z,16.63
2023-03-02T06:25:59.456Z,14.45
2023-03-02T06:28:27.146Z,16.60
2023-03-02T06:30:54.273Z,16.65
2023-03-02T06:33:21.752Z,15.68
2023-03-02T06:35:50.480Z,16.92
2023-03-02T06:38:17.974Z,16.13
2023-03-02T06:40:45.190Z,15.35
2023-03-02T06:43:12.266Z,17.02
2023-03-02T06:45:39.685Z,15.02
2023-03-02T06:48:07.769Z,14.70
2023-03-02T06:50:35.386Z,14.73
2023-03-02T06:53:02.628Z,16.02
2023-03-02T06:55:29.672Z,17.15
2023-03-02T06:57:56.841Z,17.58
2023-03-02T07:00:28.443Z,15.43
2023-03-02T07:05:26.208Z,14.30
2023-03-02T07:07:53.254Z,14.85
2023-03-02T07:10:20.382Z,19.08
2023-03-02T07:12:47.432Z,18.15
2023-03-02T07:15:15.870Z,16.90
2023-03-02T07:17:44.935Z,17.05
2023-03-02T07:20:18.623Z,15.00
2023-03-02T07:22:45.776Z,18.17
2023-03-02T07:25:13.330Z,18.25
2023-03-02T07:27:41.679Z,16.92
2023-03-02T07:30:09.900Z,18.00
2023-03-02T07:32:37.079Z,16.05
2023-03-02T07:35:04.580Z,15.57
2023-03-02T07:37:31.758Z,16.27
2023-03-02T07:40:00.704Z,18.25
2023-03-02T07:42:28.245Z,16.23
2023-03-02T07:44:55.723Z,19.20
2023-03-02T07:47:22.817Z,19.20
2023-03-02T07:49:50.165Z,17.40
2023-03-02T07:52:17.334Z,17.95
2023-03-02T07:54:44.382Z,19.75
2023-03-02T07:57:13.844Z,19.30
2023-03-02T07:59:41.007Z,17.15
2023-03-02T08:02:15.791Z,16.40
2023-03-02T08:04:43.350Z,16.88
2023-03-02T08:07:10.610Z,18.38
2023-03-02T08:09:40.234Z,18.50
2023-03-02T08:12:07.384Z,16.67
2023-03-02T08:14:34.621Z,17.63
2023-03-02T08:17:05.540Z,17.45
2023-03-02T08:19:32.822Z,17.10
2023-03-02T08:22:01.924Z,16.80
2023-03-02T08:24:29.134Z,16.95
2023-03-02T08:26:56.176Z,15.55
2023-03-02T08:29:24.675Z,17.58
2023-03-02T08:31:51.871Z,17.52
2023-03-02T08:34:19.064Z,18.08
2023-03-02T08:36:46.163Z,16.33
2023-03-02T08:39:13.531Z,16.73
2023-03-02T08:41:40.542Z,17.83
2023-03-02T08:44:07.797Z,18.13
2023-03-02T08:46:35.159Z,17.42
2023-03-02T08:49:02.274Z,14.80
2023-03-02T08:51:29.677Z,16.55
2023-03-02T08:53:57.051Z,16.05
2023-03-02T08:56:34.458Z,16.83
2023-03-02T08:59:05.662Z,18.67
2023-03-02T09:01:36.101Z,17.55
2023-03-02T09:04:06.783Z,17.15
2023-03-02T09:06:43.001Z,19.25
2023-03-02T09:09:12.804Z,16.63
2023-03-02T09:11:42.298Z,15.70
2023-03-02T09:14:10.354Z,16.25
2023-03-02T09:16:37.578Z,17.30
2023-03-02T09:19:04.887Z,16.98
2023-03-02T09:21:32.285Z,16.52
2023-03-02T09:23:59.770Z,14.35
2023-03-02T09:26:27.826Z,16.15
2023-03-02T09:28:55.761Z,14.32
2023-03-02T09:31:23.166Z,15.25
2023-03-02T09:33:52.701Z,14.52
2023-03-02T09:36:25.885Z,14.60
2023-03-02T09:38:53.803Z,17.33
2023-03-02T09:41:20.792Z,14.10
2023-03-02T09:44:40.858Z,14.27
2023-03-02T09:47:43.766Z,14.02
2023-03-02T09:50:34.370Z,14.60
2023-03-02T09:53:35.339Z,14.00
2023-03-02T09:56:03.334Z,14.55
2023-03-02T09:58:38.376Z,13.75
2023-03-02T10:01:16.379Z,15.35
2023-03-02T10:03:59.012Z,13.18
2023-03-02T10:06:27.040Z,12.43
2023-03-02T10:08:55.228Z,14.02
2023-03-02T10:12:01.796Z,12.55
2023-03-02T10:14:39.742Z,13.38
2023-03-02T10:17:40.475Z,12.23
2023-03-02T10:20:35.229Z,13.43
2023-03-02T10:23:50.473Z,12.90
2023-03-02T10:26:45.136Z,13.30
2023-03-02T10:29:26.972Z,12.38
2023-03-02T10:32:04.344Z,13.60
2023-03-02T10:34:32.164Z,11.45
2023-03-02T10:36:59.350Z,11.30
2023-03-02T10:39:26.446Z,11.90
2023-03-02T10:42:13.557Z,13.80
2023-03-02T10:44:46.607Z,12.85
2023-03-02T10:47:28.103Z,13.98
2023-03-02T10:49:57.679Z,12.68
2023-03-02T10:52:27.869Z,13.07
2023-03-02T10:55:12.909Z,16.67
2023-03-02T10:57:42.685Z,13.00
2023-03-02T11:00:24.910Z,12.27
2023-03-02T11:02:57.865Z,10.68
2023-03-02T11:05:33.534Z,9.77
2023-03-02T11:08:10.664Z,10.73
2023-03-02T11:10:41.795Z,9.48
2023-03-02T11:13:42.039Z,11.60
2023-03-02T11:16:18.278Z,10.48
2023-03-02T11:18:53.082Z,10.00
2023-03-02T11:21:35.796Z,8.50
2023-03-02T11:24:20.965Z,9.93
2023-03-02T11:27:01.190Z,8.95
2023-03-02T11:30:01.275Z,8.73
2023-03-02T11:33:09.997Z,7.90
2023-03-02T11:36:06.844Z,10.77
2023-03-02T11:38:48.594Z,7.97
2023-03-02T11:41:34.715Z,7.50
2023-03-02T11:44:20.695Z,8.20
2023-03-02T11:46:59.206Z,7.82
2023-03-02T11:49:42.301Z,9.88
2023-03-02T11:52:33.201Z,9.43
2023-03-02T11:55:27.034Z,8.77
2023-03-02T12:00:42.745Z,8.50
2023-03-02T12:03:15.916Z,7.57
2023-03-02T12:05:58.529Z,7.70
2023-03-02T12:08:25.584Z,7.78
2023-03-02T12:11:03.475Z,9.02
2023-03-02T12:13:40.159Z,7.00
2023-03-02T12:16:41.587Z,7.78
2023-03-02T12:19:30.361Z,6.80
2023-03-02T12:22:09.892Z,8.07
2023-03-02T12:24:40.408Z,6.65
2023-03-02T12:27:13.526Z,8.95
2023-03-02T12:29:47.138Z,7.20
2023-03-02T12:32:26.538Z,7.47
2023-03-02T12:35:00.402Z,7.38
2023-03-02T12:37:48.774Z,8.18
2023-03-02T12:40:46.544Z,6.80
2023-03-02T12:43:38.144Z,7.20
2023-03-02T12:46:28.334Z,6.50
2023-03-02T12:49:38.504Z,7.13
2023-03-02T12:52:36.664Z,5.88
2023-03-02T12:55:09.757Z,9.23
2023-03-02T12:57:49.055Z,6.97
2023-03-02T13:00:20.120Z,6.72
2023-03-02T13:02:51.113Z,6.17
2023-03-02T13:05:27.996Z,6.33
2023-03-02T13:08:13.889Z,6.03
2023-03-02T13:10:51.176Z,6.75
2023-03-02T13:13:33.918Z,8.98
2023-03-02T13:16:30.118Z,7.00
2023-03-02T13:19:03.779Z,6.60
2023-03-02T13:21:37.791Z,6.25
2023-03-02T13:24:34.616Z,6.65
2023-03-02T13:27:17.878Z,7.53
2023-03-02T13:29:45.746Z,7.45
2023-03-02T13:32:36.590Z,7.03
2023-03-02T13:35:05.049Z,7.68
2023-03-02T13:37:43.917Z,6.43
2023-03-02T13:40:23.346Z,6.57
2023-03-02T13:42:51.445Z,7.68
2023-03-02T13:45:23.381Z,6.57
2023-03-02T13:50:26.565Z,7.72
2023-03-02T13:52:57.348Z,8.15
2023-03-02T13:55:25.226Z,7.03
2023-03-02T13:57:53.848Z,6.25
2023-03-02T14:00:32.224Z,5.88
2023-03-02T14:02:59.722Z,6.40
2023-03-02T14:05:33.308Z,5.70
2023-03-02T14:08:07.256Z,5.95
2023-03-02T14:10:34.363Z,5.90
2023-03-02T14:13:12.200Z,5.90
2023-03-02T14:15:45.449Z,6.50
2023-03-02T14:18:33.094Z,5.88
2023-03-02T14:21:00.303Z,11.05
2023-03-02T14:23:28.025Z,6.32
2023-03-02T14:25:56.763Z,6.20
2023-03-02T14:28:35.345Z,7.20
2023-03-02T14:31:02.411Z,5.38
2023-03-02T14:33:29.520Z,7.38
2023-03-02T14:35:59.423Z,6.00
2023-03-02T14:38:27.870Z,5.25
2023-03-02T14:40:55.773Z,6.25
2023-03-02T14:43:23.977Z,5.40
2023-03-02T14:45:54.848Z,6.15
2023-03-02T14:48:21.977Z,6.25
2023-03-02T14:50:50.577Z,5.03
2023-03-02T14:53:28.562Z,5.53
2023-03-02T14:55:56.244Z,6.72
2023-03-02T14:58:32.183Z,7.47
2023-03-02T15:01:00.272Z,5.93
2023-03-02T15:03:28.421Z,6.93
2023-03-02T15:06:01.138Z,5.85
2023-03-02T15:08:29.648Z,5.10
2023-03-02T15:10:56.773Z,5.70
2023-03-02T15:13:23.832Z,7.07
2023-03-02T15:15:52.808Z,6.82
2023-03-02T15:18:20.124Z,5.80
2023-03-02T15:20:47.292Z,6.30
2023-03-02T15:23:14.438Z,7.65
2023-03-02T15:25:43.124Z,7.10
2023-03-02T15:28:10.742Z,6.32
2023-03-02T15:30:37.798Z,7.50
2023-03-02T15:33:04.795Z,5.70
2023-03-02T15:35:31.905Z,5.70
2023-03-02T15:38:02.587Z,6.32
2023-03-02T15:40:29.715Z,5.93
2023-03-02T15:42:56.755Z,5.32
2023-03-02T15:45:23.842Z,7.28
2023-03-02T15:47:50.881Z,6.63
2023-03-02T15:50:19.609Z,6.32
2023-03-02T15:52:46.768Z,5.72
2023-03-02T15:55:16.910Z,6.60
2023-03-02T15:57:44.192Z,6.82
2023-03-02T16:00:13.553Z,5.55
2023-03-02T16:02:41.243Z,5.57
2023-03-02T16:05:09.468Z,5.70
2023-03-02T16:07:37.318Z,5.18
2023-03-02T16:10:05.219Z,7.05
2023-03-02T16:12:32.264Z,7.97
2023-03-02T16:14:59.678Z,5.90
2023-03-02T16:17:27.510Z,6.20
2023-03-02T16:19:54.543Z,7.07
2023-03-02T16:22:22.125Z,6.40
2023-03-02T16:24:49.810Z,7.63
2023-03-02T16:27:16.958Z,5.63
2023-03-02T16:29:44.032Z,7.97
2023-03-02T16:32:11.161Z,6.35
2023-03-02T16:34:38.406Z,5.20
2023-03-02T16:37:05.437Z,5.50
2023-03-02T16:39:32.976Z,6.55
2023-03-02T16:42:00.363Z,6.20
2023-03-02T16:44:27.428Z,7.80
2023-03-02T16:46:56.967Z,6.05
2023-03-02T16:49:24.602Z,6.13
2023-03-02T16:51:59.677Z,7.68
2023-03-02T16:54:26.921Z,6.60
2023-03-02T16:56:53.990Z,4.53
2023-03-02T16:59:21.215Z,5.50
2023-03-02T17:01:48.531Z,6.28
2023-03-02T17:04:18.450Z,6.00
2023-03-02T17:07:02.091Z,5.65
2023-03-02T17:09:29.734Z,6.03
2023-03-02T17:11:57.598Z,8.25
2023-03-02T17:14:25.142Z,7.85
2023-03-02T17:16:52.337Z,8.18
2023-03-02T17:19:19.602Z,6.30
2023-03-02T17:21:48.031Z,6.93
2023-03-02T17:24:15.040Z,8.48
2023-03-02T17:26:42.631Z,7.20
2023-03-02T17:29:12.329Z,6.78
2023-03-02T17:31:39.727Z,7.18
2023-03-02T17:34:06.895Z,8.40
2023-03-02T17:36:36.750Z,7.30
2023-03-02T17:39:05.003Z,7.72
2023-03-02T17:41:34.009Z,6.88
2023-03-02T17:44:03.154Z,7.50
2023-03-02T17:46:32.561Z,7.70
2023-03-02T17:49:01.298Z,8.10
2023-03-02T17:51:29.688Z,8.15
2023-03-02T17:53:57.341Z,7.13
2023-03-02T17:56:27.511Z,7.88
2023-03-02T17:59:05.294Z,8.48
2023-03-02T18:01:33.578Z,8.57
2023-03-02T18:04:00.925Z,7.40
2023-03-02T18:06:28.483Z,8.48
2023-03-02T18:08:55.696Z,8.80
2023-03-02T18:11:24.544Z,8.20
2023-03-02T18:13:54.934Z,8.25
2023-03-02T18:16:24.811Z,8.60
2023-03-02T18:18:53.931Z,8.55
2023-03-02T18:21:21.441Z,9.35
2023-03-02T18:23:49.629Z,7.95
2023-03-02T18:26:17.019Z,9.13
2023-03-02T18:28:44.155Z,8.52
2023-03-02T18:31:16.950Z,9.30
2023-03-02T18:33:45.135Z,11.50
2023-03-02T18:36:12.383Z,10.90
2023-03-02T18:38:39.588Z,10.65
2023-03-02T18:41:08.579Z,10.55
2023-03-02T18:43:40.235Z,10.95
2023-03-02T18:46:10.444Z,10.93
2023-03-02T18:48:39.590Z,9.10
2023-03-02T18:51:06.680Z,10.88
2023-03-02T18:53:34.077Z,10.20
2023-03-02T18:56:01.146Z,11.32
2023-03-02T18:58:33.992Z,11.98
2023-03-02T19:01:02.398Z,10.98
2023-03-02T19:03:30.317Z,8.65
2023-03-02T19:05:58.378Z,9.32
2023-03-02T19:08:26.485Z,9.23
2023-03-02T19:10:54.798Z,9.57
2023-03-02T19:13:22.552Z,9.57
2023-03-02T19:15:50.578Z,10.25
2023-03-02T19:18:21.061Z,9.05
2023-03-02T19:20:51.057Z,9.63
2023-03-02T19:23:18.807Z,10.65
2023-03-02T19:25:46.027Z,10.23
2023-03-02T19:28:13.672Z,8.77
2023-03-02T19:30:40.775Z,9.32
2023-03-02T19:33:09.678Z,9.50
2023-03-02T19:35:38.132Z,12.23
2023-03-02T19:38:06.736Z,8.80
2023-03-02T19:40:34.623Z,8.85
2023-03-02T19:43:01.895Z,10.77
2023-03-02T19:45:32.877Z,11.30
2023-03-02T19:48:05.789Z,9.73
2023-03-02T19:50:33.517Z,8.25
2023-03-02T19:53:00.562Z,10.45
2023-03-02T19:55:27.879Z,9.40
2023-03-02T19:58:01.149Z,9.18
2023-03-02T20:00:31.532Z,11.43
2023-03-02T20:02:59.413Z,9.88
2023-03-02T20:05:27.809Z,9.48
2023-03-02T20:07:55.422Z,9.77
2023-03-02T20:10:28.452Z,10.55
2023-03-02T20:12:55.543Z,8.95
2023-03-02T20:15:22.927Z,9.40
2023-03-02T20:17:50.022Z,8.98
2023-03-02T20:20:17.169Z,9.18
2023-03-02T20:22:45.497Z,8.23
2023-03-02T20:25:14.599Z,8.40
2023-03-02T20:27:41.799Z,9.13
2023-03-02T20:30:17.668Z,10.52
2023-03-02T20:32:45.044Z,8.40
2023-03-02T20:35:13.018Z,9.10
2023-03-02T20:37:40.223Z,9.60
2023-03-02T20:40:09.850Z,10.13
2023-03-02T20:42:36.963Z,9.25
2023-03-02T20:45:05.797Z,10.15
2023-03-02T20:47:33.938Z,9.50
2023-03-02T20:50:01.635Z,9.60
2023-03-02T20:52:28.930Z,9.05
2023-03-02T20:54:56.084Z,9.65
2023-03-02T20:57:23.490Z,8.48
2023-03-02T20:59:51.202Z,9.77
2023-03-02T21:02:20.428Z,9.15
2023-03-02T21:04:47.758Z,8.70
2023-03-02T21:07:15.745Z,9.05
2023-03-02T21:09:44.874Z,9.35
2023-03-02T21:12:12.761Z,9.63
2023-03-02T21:14:40.642Z,9.63
2023-03-02T21:17:08.641Z,9.10
2023-03-02T21:19:35.849Z,10.02
2023-03-02T21:22:02.970Z,8.75
2023-03-02T21:24:30.196Z,8.27
2023-03-02T21:26:57.762Z,8.02
2023-03-02T21:29:26.813Z,8.43
2023-03-02T21:31:54.588Z,9.43
2023-03-02T21:34:22.411Z,9.38
2023-03-02T21:36:53.682Z,9.40
2023-03-02T21:39:23.717Z,8.43
2023-03-02T21:41:52.009Z,9.13
2023-03-02T21:44:19.565Z,10.95
2023-03-02T21:46:47.810Z,11.70
2023-03-02T21:49:20.956Z,12.40
2023-03-02T21:51:49.879Z,14.20
2023-03-02T21:54:18.948Z,13.20
2023-03-02T21:56:46.323Z,12.95
2023-03-02T21:59:13.418Z,13.13
2023-03-02T22:01:40.801Z,13.70
2023-03-02T22:04:07.911Z,14.20
2023-03-02T22:06:36.244Z,15.40
2023-03-02T22:09:04.198Z,13.63
2023-03-02T22:11:36.458Z,14.13
2023-03-02T22:14:13.812Z,14.05
2023-03-02T22:16:45.188Z,13.57
2023-03-02T22:19:30.155Z,13.98
2023-03-02T22:22:03.207Z,11.93
2023-03-02T22:24:32.997Z,12.55
2023-03-02T22:27:23.224Z,10.80
2023-03-02T22:29:53.399Z,11.20
2023-03-02T22:32:24.573Z,12.25
2023-03-02T22:34:58.177Z,12.05
2023-03-02T22:37:30.855Z,10.70
2023-03-02T22:40:07.946Z,12.55
2023-03-02T22:42:34.989Z,13.30
2023-03-02T22:45:17.788Z,10.95
2023-03-02T22:47:51.341Z,11.90
2023-03-02T22:50:22.339Z,11.35
2023-03-02T22:52:50.053Z,11.25
2023-03-02T22:55:40.594Z,10.98
2023-03-02T22:58:29.844Z,10.50
2023-03-02T23:01:01.993Z,10.52
2023-03-02T23:03:40.225Z,10.95
2023-03-02T23:06:38.575Z,9.95
2023-03-02T23:09:06.867Z,9.85
2023-03-02T23:11:39.596Z,10.43
2023-03-02T23:14:52.797Z,13.10
2023-03-02T23:17:21.092Z,10.93
2023-03-02T23:19:50.723Z,10.35
2023-03-02T23:22:18.072Z,10.25
2023-03-02T23:24:45.287Z,10.75
2023-03-02T23:27:12.440Z,10.52
2023-03-02T23:29:40.359Z,12.65
2023-03-02T23:32:07.710Z,12.95
2023-03-02T23:34:34.847Z,12.07
2023-03-02T23:37:02.787Z,14.10
2023-03-02T23:39:29.895Z,12.35
2023-03-02T23:41:57.394Z,14.68
2023-03-02T23:44:24.546Z,15.98
2023-03-02T23:46:52.155Z,15.10
2023-03-02T23:49:19.667Z,12.85
2023-03-02T23:51:46.849Z,15.50
2023-03-02T23:54:13.960Z,13.82
2023-03-02T23:56:41.022Z,13.70
2023-03-02T23:59:08.176Z,13.63
